createdAt,value
2022-10-05T00:00:37.721Z,68.00
2022-10-05T00:02:58.887Z,68.38
2022-10-05T00:05:26.849Z,68.50
2022-10-05T00:57:42.097Z,69.00
2022-10-05T01:03:58.515Z,68.51
2022-10-05T01:10:47.924Z,68.49
2022-10-05T01:17:12.015Z,68.51
2022-10-05T01:23:40.156Z,68.69
2022-10-05T01:27:01.363Z,67.52
2022-10-05T01:33:01.872Z,67.68
2022-10-05T01:35:43.285Z,67.82
2022-10-05T01:38:54.067Z,67.45
2022-10-05T01:41:37.303Z,67.71
2022-10-05T01:44:23.284Z,67.87
2022-10-05T01:47:10.565Z,68.31
2022-10-05T01:50:27.520Z,67.79
2022-10-05T01:53:18.259Z,68.31
2022-10-05T01:56:27.963Z,68.43
2022-10-05T02:00:30.398Z,68.30
2022-10-05T02:02:43.962Z,68.23
2022-10-05T02:05:21.398Z,68.40
2022-10-05T02:08:19.275Z,68.95
2022-10-05T02:11:01.137Z,68.90
2022-10-05T02:13:40.531Z,69.16
2022-10-05T02:16:43.609Z,68.44
2022-10-05T02:19:35.324Z,68.45
2022-10-05T02:22:20.019Z,68.69
2022-10-05T02:25:05.868Z,68.19
2022-10-05T02:28:34.741Z,67.69
2022-10-05T02:31:12.494Z,67.48
2022-10-05T02:36:36.265Z,66.65
2022-10-05T02:39:17.904Z,66.20
2022-10-05T02:41:57.201Z,65.97
2022-10-05T02:44:34.684Z,66.32
2022-10-05T02:47:21.484Z,66.01
2022-10-05T02:50:03.288Z,66.90
2022-10-05T02:52:45.798Z,66.03
2022-10-05T02:55:19.941Z,66.41
2022-10-05T02:58:10.370Z,66.25
2022-10-05T03:00:48.238Z,66.53
2022-10-05T03:03:27.964Z,65.89
2022-10-05T03:06:10.563Z,66.00
2022-10-05T03:08:55.129Z,66.28
2022-10-05T03:11:33.746Z,66.87
2022-10-05T03:14:22.126Z,66.43
2022-10-05T03:17:01.017Z,67.27
2022-10-05T03:19:37.857Z,67.40
2022-10-05T03:22:30.047Z,67.29
2022-10-05T03:25:40.768Z,67.44
2022-10-05T03:28:47.060Z,67.63
2022-10-05T03:31:28.218Z,67.72
2022-10-05T03:34:21.289Z,68.37
2022-10-05T03:37:02.618Z,68.39
2022-10-05T03:39:54.447Z,68.64
2022-10-05T03:42:56.439Z,67.36
2022-10-05T03:45:47.869Z,68.35
2022-10-05T03:48:32.091Z,68.41
2022-10-05T03:51:12.290Z,68.39
2022-10-05T03:53:52.900Z,68.09
2022-10-05T03:56:34.658Z,67.92
2022-10-05T03:59:13.834Z,67.74
2022-10-05T04:01:51.735Z,68.13
2022-10-05T04:04:42.592Z,68.09
2022-10-05T04:07:20.538Z,67.58
2022-10-05T04:09:52.975Z,67.69
2022-10-05T04:12:27.655Z,68.14
2022-10-05T04:15:17.981Z,68.03
2022-10-05T04:17:56.069Z,68.19
2022-10-05T04:20:47.139Z,68.92
2022-10-05T04:23:23.277Z,69.23
2022-10-05T04:26:02.390Z,68.99
2022-10-05T04:28:56.296Z,69.30
2022-10-05T04:31:42.901Z,68.60
2022-10-05T04:34:42.457Z,69.13
2022-10-05T04:37:42.102Z,69.12
2022-10-05T04:44:58.427Z,69.82
2022-10-05T04:47:48.124Z,69.39
2022-10-05T04:50:48.613Z,69.47
2022-10-05T04:53:54.846Z,70.06
2022-10-05T04:56:38.540Z,69.27
2022-10-05T04:59:18.151Z,69.21
2022-10-05T05:01:56.256Z,69.29
2022-10-05T05:04:41.170Z,69.24
2022-10-05T05:07:29.610Z,69.09
2022-10-05T05:10:44.937Z,68.56
2022-10-05T05:13:30.760Z,68.35
2022-10-05T05:16:23.071Z,68.20
2022-10-05T05:19:09.212Z,69.06
2022-10-05T05:21:49.688Z,68.09
2022-10-05T05:27:43.195Z,67.79
2022-10-05T05:30:38.836Z,66.93
2022-10-05T05:33:14.639Z,67.10
2022-10-05T05:35:57.018Z,66.61
2022-10-05T05:38:33.337Z,66.26
2022-10-05T05:41:23.430Z,66.77
2022-10-05T05:44:20.153Z,66.37
2022-10-05T05:47:09.609Z,66.86
2022-10-05T05:50:20.087Z,65.86
2022-10-05T05:52:58.530Z,66.57
2022-10-05T05:55:34.898Z,66.39
2022-10-05T05:58:25.164Z,65.92
2022-10-05T06:01:25.055Z,66.38
2022-10-05T06:04:09.366Z,66.83
2022-10-05T06:06:42.253Z,66.55
2022-10-05T06:09:33.598Z,66.25
2022-10-05T06:12:13.374Z,66.70
2022-10-05T06:14:52.911Z,66.33
2022-10-05T06:17:30.221Z,65.95
2022-10-05T06:20:05.355Z,65.35
2022-10-05T06:22:45.198Z,64.88
2022-10-05T06:25:11.813Z,64.51
2022-10-05T06:28:02.105Z,63.97
2022-10-05T06:30:47.467Z,65.73
2022-10-05T06:33:36.790Z,64.14
2022-10-05T06:36:15.070Z,64.64
2022-10-05T06:39:03.260Z,64.95
2022-10-05T06:41:48.664Z,63.76
2022-10-05T06:44:27.408Z,62.92
2022-10-05T06:47:08.859Z,62.97
2022-10-05T06:49:56.815Z,63.34
2022-10-05T06:52:41.327Z,62.65
2022-10-05T06:55:43.910Z,63.08
2022-10-05T06:58:13.819Z,63.30
2022-10-05T07:00:52.413Z,63.01
2022-10-05T07:03:44.350Z,63.06
2022-10-05T07:06:25.586Z,63.03
2022-10-05T07:09:07.553Z,63.52
2022-10-05T07:11:57.390Z,63.46
2022-10-05T07:14:32.474Z,63.43
2022-10-05T07:17:17.113Z,62.74
2022-10-05T07:20:36.202Z,62.63
2022-10-05T07:23:16.922Z,62.13
2022-10-05T07:25:57.551Z,62.23
2022-10-05T07:28:44.014Z,61.43
2022-10-05T07:31:37.991Z,61.36
2022-10-05T07:34:27.326Z,61.03
2022-10-05T07:36:59.983Z,61.34
2022-10-05T07:39:59.822Z,62.23
2022-10-05T07:42:52.269Z,62.46
2022-10-05T07:45:29.636Z,63.45
2022-10-05T07:48:04.513Z,61.68
2022-10-05T07:50:52.560Z,61.99
2022-10-05T07:53:28.426Z,61.52
2022-10-05T07:56:02.806Z,59.91
2022-10-05T07:58:58.262Z,61.10
2022-10-05T08:01:29.867Z,62.13
2022-10-05T08:04:04.851Z,60.23
2022-10-05T08:06:37.248Z,59.87
2022-10-05T08:09:28.701Z,59.21
2022-10-05T08:12:08.038Z,58.79
2022-10-05T08:14:37.407Z,58.60
2022-10-05T08:17:25.435Z,58.97
2022-10-05T08:20:10.948Z,58.46
2022-10-05T08:22:47.424Z,58.34
2022-10-05T08:25:24.389Z,58.02
2022-10-05T08:28:10.649Z,58.73
2022-10-05T08:31:01.414Z,57.73
2022-10-05T08:34:00.234Z,57.28
2022-10-05T08:36:52.926Z,56.70
2022-10-05T08:39:25.162Z,55.69
2022-10-05T08:42:37.227Z,55.18
2022-10-05T08:45:27.580Z,54.78
2022-10-05T08:48:17.250Z,54.65
2022-10-05T08:51:07.710Z,53.80
2022-10-05T08:53:36.610Z,55.76
2022-10-05T08:56:28.953Z,55.68
2022-10-05T08:59:28.292Z,54.40
2022-10-05T09:02:00.598Z,53.93
2022-10-05T09:04:35.200Z,54.45
2022-10-05T09:07:52.633Z,55.01
2022-10-05T09:10:44.580Z,58.34
2022-10-05T09:13:38.219Z,58.81
2022-10-05T09:16:23.659Z,58.67
2022-10-05T09:19:11.763Z,59.47
2022-10-05T09:22:10.010Z,59.62
2022-10-05T09:25:00.312Z,58.14
2022-10-05T09:27:48.397Z,56.09
2022-10-05T09:30:23.028Z,56.45
2022-10-05T09:33:34.363Z,55.61
2022-10-05T10:13:26.258Z,52.79
2022-10-05T10:19:19.806Z,50.41
2022-10-05T10:22:20.870Z,48.75
2022-10-05T10:24:52.948Z,48.52
2022-10-05T10:27:39.815Z,48.25
2022-10-05T10:30:36.990Z,48.82
2022-10-05T10:33:12.627Z,47.77
2022-10-05T10:36:10.162Z,47.00
2022-10-05T10:39:04.295Z,47.31
2022-10-05T10:42:06.021Z,47.56
2022-10-05T10:44:54.140Z,48.26
2022-10-05T10:47:45.977Z,48.08
2022-10-05T10:50:37.204Z,46.86
2022-10-05T10:53:31.763Z,47.25
2022-10-05T10:56:28.947Z,47.50
2022-10-05T10:59:14.480Z,48.26
2022-10-05T11:02:41.669Z,47.66
2022-10-05T11:05:19.686Z,47.10
2022-10-05T11:07:58.161Z,48.23
2022-10-05T11:10:51.994Z,48.39
2022-10-05T11:13:41.137Z,48.77
2022-10-05T11:16:26.275Z,48.72
2022-10-05T11:19:40.561Z,48.61
2022-10-05T11:22:40.490Z,49.04
2022-10-05T11:25:28.398Z,49.55
2022-10-05T11:28:17.027Z,49.59
2022-10-05T11:30:51.208Z,50.07
2022-10-05T11:33:23.903Z,50.93
2022-10-05T11:36:28.125Z,49.94
2022-10-05T11:39:03.854Z,49.72
2022-10-05T11:41:42.960Z,51.31
2022-10-05T11:44:56.622Z,51.83
2022-10-05T11:47:37.397Z,51.44
2022-10-05T11:50:16.272Z,51.84
2022-10-05T11:52:54.042Z,51.52
2022-10-05T11:55:42.583Z,51.40
2022-10-05T11:58:29.394Z,51.22
2022-10-05T12:01:10.947Z,52.17
2022-10-05T12:04:07.432Z,51.26
2022-10-05T12:06:53.674Z,51.23
2022-10-05T12:09:33.517Z,51.72
2022-10-05T12:12:25.805Z,50.57
2022-10-05T12:15:00.720Z,50.28
2022-10-05T12:17:55.272Z,49.89
2022-10-05T12:20:28.802Z,49.34
2022-10-05T12:23:09.992Z,49.96
2022-10-05T12:25:45.713Z,49.31
2022-10-05T12:28:19.641Z,50.22
2022-10-05T12:30:49.327Z,49.61
2022-10-05T12:33:28.001Z,49.80
2022-10-05T12:36:10.668Z,50.34
2022-10-05T12:38:53.179Z,50.49
2022-10-05T12:41:30.397Z,49.73
2022-10-05T12:44:12.491Z,49.38
2022-10-05T12:46:57.544Z,50.05
2022-10-05T12:49:45.819Z,49.51
2022-10-05T12:52:40.493Z,48.12
2022-10-05T12:55:30.416Z,46.89
2022-10-05T12:58:00.723Z,46.41
2022-10-05T13:00:34.027Z,45.01
2022-10-05T13:03:25.848Z,44.92
2022-10-05T13:06:15.479Z,43.98
2022-10-05T13:08:58.439Z,43.83
2022-10-05T13:11:42.464Z,43.36
2022-10-05T13:14:20.204Z,43.61
2022-10-05T13:16:59.475Z,42.13
2022-10-05T13:19:38.471Z,41.83
2022-10-05T13:22:45.646Z,42.05
2022-10-05T13:25:29.356Z,42.07
2022-10-05T13:28:12.946Z,41.48
2022-10-05T13:31:15.746Z,40.26
2022-10-05T13:34:02.524Z,39.38
2022-10-05T13:36:47.561Z,40.02
2022-10-05T13:39:46.100Z,39.41
2022-10-05T13:42:21.335Z,38.22
2022-10-05T13:44:59.813Z,38.10
2022-10-05T13:47:58.037Z,38.04
2022-10-05T13:50:33.562Z,36.83
2022-10-05T13:53:23.165Z,36.68
2022-10-05T13:55:59.568Z,36.37
2022-10-05T13:58:44.630Z,36.34
2022-10-05T14:01:34.995Z,35.99
2022-10-05T14:04:04.031Z,35.21
2022-10-05T14:06:34.953Z,35.57
2022-10-05T14:09:01.767Z,34.90
2022-10-05T14:11:35.283Z,34.56
2022-10-05T14:14:23.814Z,33.15
2022-10-05T14:19:43.086Z,31.51
2022-10-05T14:22:24.645Z,30.94
2022-10-05T14:25:13.206Z,29.73
2022-10-05T14:27:55.636Z,29.87
2022-10-05T14:30:28.384Z,28.88
2022-10-05T14:33:07.348Z,28.75
2022-10-05T14:35:49.807Z,28.72
2022-10-05T14:38:54.976Z,29.17
2022-10-05T14:41:23.657Z,28.88
2022-10-05T14:44:15.781Z,28.79
2022-10-05T14:47:30.576Z,29.03
2022-10-05T14:50:14.963Z,28.38
2022-10-05T14:53:04.709Z,28.42
2022-10-05T14:55:40.616Z,29.06
2022-10-05T14:58:31.670Z,28.35
2022-10-05T15:01:21.545Z,28.47
2022-10-05T15:04:06.143Z,27.96
2022-10-05T15:06:55.506Z,27.85
2022-10-05T15:09:41.608Z,27.78
2022-10-05T15:12:11.580Z,27.45
2022-10-05T15:14:44.600Z,27.21
2022-10-05T15:17:18.140Z,27.38
2022-10-05T15:20:09.711Z,27.07
2022-10-05T15:22:53.986Z,26.67
2022-10-05T15:25:34.420Z,26.81
2022-10-05T15:28:22.900Z,27.19
2022-10-05T15:31:02.072Z,27.79
2022-10-05T15:33:44.956Z,27.29
2022-10-05T15:36:17.963Z,27.59
2022-10-05T15:39:29.870Z,27.76
2022-10-05T15:42:01.841Z,27.77
2022-10-05T15:44:50.674Z,27.99
2022-10-05T15:47:42.462Z,28.07
2022-10-05T15:50:24.261Z,27.85
2022-10-05T15:52:58.938Z,27.81
2022-10-05T15:55:48.804Z,28.20
2022-10-05T15:58:25.092Z,27.84
2022-10-05T16:01:02.375Z,27.62
2022-10-05T16:03:48.370Z,28.18
2022-10-05T16:06:39.269Z,29.74
2022-10-05T16:09:17.551Z,30.24
2022-10-05T16:11:59.182Z,32.13
2022-10-05T16:15:09.396Z,32.49
2022-10-05T16:17:56.421Z,34.59
2022-10-05T16:20:28.456Z,36.07
2022-10-05T16:23:11.429Z,37.17
2022-10-05T16:25:53.571Z,37.15
2022-10-05T16:28:32.092Z,38.49
2022-10-05T16:31:32.917Z,39.34
2022-10-05T16:34:14.229Z,39.94
2022-10-05T16:37:11.659Z,39.98
2022-10-05T16:39:53.995Z,41.17
2022-10-05T16:42:36.047Z,41.83
2022-10-05T16:45:11.476Z,42.68
2022-10-05T16:47:57.822Z,42.41
2022-10-05T16:50:38.068Z,42.89
2022-10-05T16:53:21.749Z,43.34
2022-10-05T16:55:56.525Z,43.83
2022-10-05T16:58:36.915Z,43.89
2022-10-05T17:01:28.755Z,43.47
2022-10-05T17:04:17.192Z,44.04
2022-10-05T17:07:01.302Z,43.74
2022-10-05T17:10:05.799Z,43.92
2022-10-05T17:12:42.914Z,44.52
2022-10-05T17:15:33.724Z,46.87
2022-10-05T17:18:48.295Z,47.51
2022-10-05T17:21:31.300Z,48.81
2022-10-05T17:24:18.728Z,49.10
2022-10-05T17:26:45.180Z,48.51
2022-10-05T17:29:28.615Z,48.99
2022-10-05T17:32:09.818Z,49.67
2022-10-05T17:34:39.453Z,50.49
2022-10-05T17:37:42.676Z,51.10
2022-10-05T17:41:04.656Z,51.13
2022-10-05T17:43:32.767Z,51.72
2022-10-05T17:46:04.780Z,52.26
2022-10-05T17:49:03.334Z,52.36
2022-10-05T17:51:32.522Z,53.23
2022-10-05T17:53:59.123Z,53.28
2022-10-05T17:56:26.008Z,53.48
2022-10-05T17:58:59.722Z,53.98
2022-10-05T18:01:34.899Z,53.71
2022-10-05T18:04:13.667Z,54.07
2022-10-05T18:06:49.286Z,54.38
2022-10-05T18:09:15.825Z,54.84
2022-10-05T18:11:45.052Z,55.42
2022-10-05T18:14:19.484Z,55.40
2022-10-05T18:17:12.411Z,55.63
2022-10-05T18:19:38.965Z,56.12
2022-10-05T18:22:14.245Z,56.13
2022-10-05T18:24:52.883Z,56.79
2022-10-05T18:27:48.442Z,56.79
2022-10-05T18:30:22.742Z,57.31
2022-10-05T18:32:52.159Z,57.53
2022-10-05T18:35:40.224Z,57.58
2022-10-05T18:38:34.457Z,58.31
2022-10-05T18:41:14.081Z,58.69
2022-10-05T18:44:09.446Z,58.85
2022-10-05T18:46:55.324Z,59.36
2022-10-05T18:49:44.937Z,58.87
2022-10-05T18:52:50.044Z,59.50
2022-10-05T18:55:28.909Z,59.89
2022-10-05T18:58:36.651Z,60.40
2022-10-05T19:01:18.747Z,60.38
2022-10-05T19:04:14.662Z,60.59
2022-10-05T19:07:03.188Z,62.01
2022-10-05T19:09:38.616Z,62.10
2022-10-05T19:12:45.032Z,61.96
2022-10-05T19:15:38.901Z,62.39
2022-10-05T19:18:30.652Z,62.04
2022-10-05T19:21:16.010Z,62.02
2022-10-05T19:24:02.341Z,62.44
2022-10-05T19:26:42.830Z,62.80
2022-10-05T19:29:38.674Z,62.90
2022-10-05T19:32:19.171Z,62.72
2022-10-05T19:34:45.663Z,62.94
2022-10-05T19:37:40.040Z,62.42
2022-10-05T19:40:19.605Z,63.41
2022-10-05T19:43:11.866Z,63.06
2022-10-05T19:46:06.805Z,63.40
2022-10-05T19:48:47.236Z,64.17
2022-10-05T19:51:26.560Z,64.20
2022-10-05T19:53:53.676Z,63.74
2022-10-05T19:56:23.425Z,63.69
2022-10-05T19:58:51.233Z,64.62
2022-10-05T20:01:29.523Z,65.17
2022-10-05T20:03:56.106Z,65.20
2022-10-05T20:06:22.627Z,65.70
2022-10-05T20:08:51.913Z,67.23
2022-10-05T20:11:25.190Z,68.02
2022-10-05T20:13:51.623Z,66.51
2022-10-05T20:16:38.356Z,66.40
2022-10-05T20:19:25.238Z,66.01
2022-10-05T20:21:56.547Z,66.55
2022-10-05T20:24:28.691Z,67.32
2022-10-05T20:26:58.027Z,67.66
2022-10-05T20:29:24.578Z,68.37
2022-10-05T20:31:51.161Z,69.12
2022-10-05T20:34:17.653Z,67.84
2022-10-05T20:36:44.433Z,67.20
2022-10-05T20:39:10.937Z,67.58
2022-10-05T20:41:37.477Z,67.55
2022-10-05T20:44:03.941Z,67.24
2022-10-05T20:46:30.505Z,69.31
2022-10-05T20:48:57.167Z,68.33
2022-10-05T20:51:23.661Z,69.70
2022-10-05T20:53:50.380Z,68.40
2022-10-05T20:56:17.019Z,68.69
2022-10-05T20:58:43.564Z,71.07
2022-10-05T21:01:10.253Z,69.56
2022-10-05T21:03:36.797Z,69.90
2022-10-05T21:06:03.404Z,69.33
2022-10-05T21:08:30.295Z,70.32
2022-10-05T21:10:57.041Z,68.96
2022-10-05T21:13:23.542Z,68.77
2022-10-05T21:15:50.024Z,69.62
2022-10-05T21:18:16.542Z,70.09
2022-10-05T21:20:43.008Z,70.22
2022-10-05T21:23:09.478Z,70.68
2022-10-05T21:25:35.921Z,71.09
2022-10-05T21:28:02.484Z,70.99
2022-10-05T21:30:29.049Z,71.02
2022-10-05T21:32:55.573Z,71.09
2022-10-05T21:35:22.051Z,70.53
2022-10-05T21:37:48.524Z,70.87
2022-10-05T21:40:15.067Z,71.43
2022-10-05T21:42:41.715Z,71.41
2022-10-05T21:45:08.874Z,72.71
2022-10-05T21:47:35.455Z,72.80
2022-10-05T21:50:02.802Z,73.09
2022-10-05T21:52:30.107Z,72.61
2022-10-05T21:54:56.650Z,72.08
2022-10-05T21:57:23.295Z,72.53
2022-10-05T21:59:49.836Z,72.74
2022-10-05T22:02:16.325Z,73.68
2022-10-05T22:04:42.810Z,75.28
2022-10-05T22:07:18.049Z,74.60
2022-10-05T22:09:50.588Z,74.61
2022-10-05T22:12:18.978Z,75.73
2022-10-05T22:14:45.853Z,76.03
2022-10-05T22:17:23.655Z,77.21
2022-10-05T22:19:51.300Z,76.86
2022-10-05T22:22:17.810Z,77.60
2022-10-05T22:24:44.354Z,79.62
2022-10-05T22:27:11.111Z,80.42
2022-10-05T22:29:38.655Z,79.38
2022-10-05T22:32:05.212Z,80.58
2022-10-05T22:34:31.772Z,78.03
2022-10-05T22:36:59.829Z,77.31
2022-10-05T22:39:26.595Z,77.98
2022-10-05T22:41:56.207Z,78.82
2022-10-05T22:44:23.018Z,77.41
2022-10-05T22:46:49.642Z,77.63
2022-10-05T22:49:16.122Z,75.91
2022-10-05T22:51:42.690Z,75.87
2022-10-05T22:54:09.180Z,76.36
2022-10-05T22:56:35.716Z,76.99
2022-10-05T22:59:02.328Z,75.96
2022-10-05T23:01:28.835Z,76.61
2022-10-05T23:03:55.346Z,75.82
2022-10-05T23:06:21.824Z,76.06
2022-10-05T23:08:48.360Z,76.28
2022-10-05T23:11:18.402Z,75.37
2022-10-05T23:13:45.219Z,75.51
2022-10-05T23:16:17.772Z,76.17
2022-10-05T23:18:46.816Z,76.08
2022-10-05T23:21:13.410Z,76.33
2022-10-05T23:23:42.376Z,76.17
2022-10-05T23:26:11.642Z,76.65
2022-10-05T23:28:43.623Z,76.84
2022-10-05T23:31:10.180Z,76.80
2022-10-05T23:33:36.714Z,78.69
2022-10-05T23:36:09.539Z,79.14
2022-10-05T23:38:36.321Z,78.88
2022-10-05T23:41:04.497Z,77.49
2022-10-05T23:43:31.126Z,76.91
2022-10-05T23:45:57.726Z,77.61
2022-10-05T23:48:24.349Z,77.06
2022-10-05T23:50:51.231Z,76.90
2022-10-05T23:53:19.691Z,76.85
2022-10-05T23:55:50.022Z,76.54
2022-10-05T23:58:16.969Z,76.73
